sensor_id;sensor_type;location;lat;lon;timestamp;pressure;altitude;pressure_sealevel;temperature;humidity
28448;BME280;15675;52.870;-1.416;2022-10-23T00:03:45;100367.06;;;15.68;100.00
28448;BME280;15675;52.870;-1.416;2022-10-23T00:06:11;100360.28;;;15.59;100.00
28448;BME280;15675;52.870;-1.416;2022-10-23T00:08:38;100352.81;;;15.42;100.00
28448;BME280;15675;52.870;-1.416;2022-10-23T00:11:12;100353.59;;;15.46;100.00
28448;BME280;15675;52.870;-1.416;2022-10-23T00:13:38;100345.28;;;15.66;100.00
28448;BME280;15675;52.870;-1.416;2022-10-23T00:16:05;100353.25;;;15.61;100.00
28448;BME280;15675;52.870;-1.416;2022-10-23T00:18:31;100340.91;;;16.05;100.00
28448;BME280;15675;52.870;-1.416;2022-10-23T00:20:57;100344.81;;;15.89;100.00
28448;BME280;15675;52.870;-1.416;2022-10-23T00:23:22;100333.16;;;16.01;100.00
28448;BME280;15675;52.870;-1.416;2022-10-23T00:25:49;100329.28;;;15.81;100.00
28448;BME280;15675;52.870;-1.416;2022-10-23T00:28:14;100324.78;;;15.86;100.00
28448;BME280;15675;52.870;-1.416;2022-10-23T00:30:41;100323.91;;;15.86;100.00
28448;BME280;15675;52.870;-1.416;2022-10-23T00:33:07;100326.72;;;16.14;100.00
28448;BME280;15675;52.870;-1.416;2022-10-23T00:35:32;100318.00;;;15.79;100.00
28448;BME280;15675;52.870;-1.416;2022-10-23T00:37:58;100317.91;;;15.82;100.00
28448;BME280;15675;52.870;-1.416;2022-10-23T00:40:23;100317.53;;;15.98;100.00
28448;BME280;15675;52.870;-1.416;2022-10-23T00:42:49;100312.22;;;16.01;100.00
28448;BME280;15675;52.870;-1.416;2022-10-23T00:45:26;100296.13;;;15.80;100.00
28448;BME280;15675;52.870;-1.416;2022-10-23T00:47:53;100296.06;;;15.85;100.00
28448;BME280;15675;52.870;-1.416;2022-10-23T00:50:21;100299.69;;;15.78;100.00
28448;BME280;15675;52.870;-1.416;2022-10-23T00:52:50;100291.72;;;15.46;100.00
28448;BME280;15675;52.870;-1.416;2022-10-23T00:55:17;100296.19;;;15.79;100.00
28448;BME280;15675;52.870;-1.416;2022-10-23T00:57:45;100296.28;;;15.74;100.00
28448;BME280;15675;52.870;-1.416;2022-10-23T01:00:16;100290.47;;;15.61;100.00
28448;BME280;15675;52.870;-1.416;2022-10-23T01:02:42;100294.00;;;15.59;100.00
28448;BME280;15675;52.870;-1.416;2022-10-23T01:05:08;100299.97;;;15.26;100.00
28448;BME280;15675;52.870;-1.416;2022-10-23T01:07:42;100305.19;;;15.28;100.00
28448;BME280;15675;52.870;-1.416;2022-10-23T01:10:30;100302.84;;;15.15;100.00
28448;BME280;15675;52.870;-1.416;2022-10-23T01:13:06;100300.97;;;15.22;100.00
28448;BME280;15675;52.870;-1.416;2022-10-23T01:18:23;100302.28;;;15.40;100.00
28448;BME280;15675;52.870;-1.416;2022-10-23T01:21:08;100290.72;;;15.50;100.00
28448;BME280;15675;52.870;-1.416;2022-10-23T01:24:08;100293.66;;;15.36;100.00
28448;BME280;15675;52.870;-1.416;2022-10-23T01:29:13;100275.91;;;15.51;100.00
28448;BME280;15675;52.870;-1.416;2022-10-23T01:32:06;100265.13;;;15.63;100.00
28448;BME280;15675;52.870;-1.416;2022-10-23T01:34:45;100262.19;;;15.41;100.00
28448;BME280;15675;52.870;-1.416;2022-10-23T01:37:14;100263.09;;;15.75;100.00
28448;BME280;15675;52.870;-1.416;2022-10-23T01:39:47;100263.50;;;15.95;100.00
28448;BME280;15675;52.870;-1.416;2022-10-23T01:42:18;100263.63;;;15.91;100.00
28448;BME280;15675;52.870;-1.416;2022-10-23T01:44:53;100251.50;;;15.50;100.00
28448;BME280;15675;52.870;-1.416;2022-10-23T01:47:26;100249.41;;;15.65;100.00
28448;BME280;15675;52.870;-1.416;2022-10-23T01:49:55;100245.13;;;15.62;100.00
28448;BME280;15675;52.870;-1.416;2022-10-23T01:52:22;100242.25;;;15.71;100.00
28448;BME280;15675;52.870;-1.416;2022-10-23T01:54:50;100242.06;;;15.81;100.00
28448;BME280;15675;52.870;-1.416;2022-10-23T01:57:19;100246.13;;;15.93;100.00
28448;BME280;15675;52.870;-1.416;2022-10-23T01:59:50;100233.69;;;15.66;100.00
28448;BME280;15675;52.870;-1.416;2022-10-23T02:02:19;100236.91;;;16.12;100.00
28448;BME280;15675;52.870;-1.416;2022-10-23T02:04:53;100238.56;;;16.15;100.00
28448;BME280;15675;52.870;-1.416;2022-10-23T02:07:19;100234.09;;;16.18;100.00
28448;BME280;15675;52.870;-1.416;2022-10-23T02:09:45;100220.66;;;15.99;100.00
28448;BME280;15675;52.870;-1.416;2022-10-23T02:18:07;100215.78;;;15.85;100.00
28448;BME280;15675;52.870;-1.416;2022-10-23T02:20:42;100203.44;;;15.91;100.00
28448;BME280;15675;52.870;-1.416;2022-10-23T02:23:21;100205.53;;;15.76;100.00
28448;BME280;15675;52.870;-1.416;2022-10-23T02:25:58;100201.69;;;15.91;100.00
28448;BME280;15675;52.870;-1.416;2022-10-23T02:28:33;100200.66;;;16.60;100.00
28448;BME280;15675;52.870;-1.416;2022-10-23T02:31:04;100177.22;;;16.55;100.00
28448;BME280;15675;52.870;-1.416;2022-10-23T02:33:33;100172.56;;;16.95;100.00
28448;BME280;15675;52.870;-1.416;2022-10-23T02:36:00;100167.81;;;16.78;100.00
28448;BME280;15675;52.870;-1.416;2022-10-23T02:38:35;100161.78;;;16.14;100.00
28448;BME280;15675;52.870;-1.416;2022-10-23T02:41:36;100167.28;;;16.05;100.00
28448;BME280;15675;52.870;-1.416;2022-10-23T02:49:14;100161.91;;;16.41;100.00
28448;BME280;15675;52.870;-1.416;2022-10-23T02:52:07;100152.50;;;16.34;100.00
28448;BME280;15675;52.870;-1.416;2022-10-23T02:57:34;100137.31;;;16.15;100.00
28448;BME280;15675;52.870;-1.416;2022-10-23T03:00:07;100136.22;;;15.93;100.00
28448;BME280;15675;52.870;-1.416;2022-10-23T03:02:38;100136.97;;;15.98;100.00
28448;BME280;15675;52.870;-1.416;2022-10-23T03:05:08;100134.38;;;15.96;100.00
28448;BME280;15675;52.870;-1.416;2022-10-23T03:07:37;100130.59;;;15.74;100.00
28448;BME280;15675;52.870;-1.416;2022-10-23T03:10:03;100129.16;;;15.62;100.00
28448;BME280;15675;52.870;-1.416;2022-10-23T03:12:29;100111.50;;;15.37;100.00
28448;BME280;15675;52.870;-1.416;2022-10-23T03:14:55;100104.84;;;15.25;100.00
28448;BME280;15675;52.870;-1.416;2022-10-23T03:17:20;100100.53;;;15.23;100.00
28448;BME280;15675;52.870;-1.416;2022-10-23T03:19:46;100095.53;;;15.13;100.00
28448;BME280;15675;52.870;-1.416;2022-10-23T03:22:12;100094.75;;;15.10;100.00
28448;BME280;15675;52.870;-1.416;2022-10-23T03:24:37;100093.78;;;15.14;100.00
28448;BME280;15675;52.870;-1.416;2022-10-23T03:27:03;100092.38;;;14.99;100.00
28448;BME280;15675;52.870;-1.416;2022-10-23T03:29:29;100095.72;;;15.06;100.00
28448;BME280;15675;52.870;-1.416;2022-10-23T03:31:54;100092.31;;;15.02;100.00
28448;BME280;15675;52.870;-1.416;2022-10-23T03:34:20;100084.34;;;15.08;100.00
28448;BME280;15675;52.870;-1.416;2022-10-23T03:36:46;100075.22;;;14.89;100.00
28448;BME280;15675;52.870;-1.416;2022-10-23T03:39:11;100080.44;;;14.51;100.00
28448;BME280;15675;52.870;-1.416;2022-10-23T03:41:39;100079.94;;;14.35;100.00
28448;BME280;15675;52.870;-1.416;2022-10-23T03:44:05;100077.19;;;14.40;100.00
28448;BME280;15675;52.870;-1.416;2022-10-23T03:46:30;100070.41;;;14.32;100.00
28448;BME280;15675;52.870;-1.416;2022-10-23T03:48:55;100067.84;;;14.31;100.00
28448;BME280;15675;52.870;-1.416;2022-10-23T03:51:24;100060.47;;;14.48;100.00
28448;BME280;15675;52.870;-1.416;2022-10-23T03:53:50;100069.94;;;14.53;100.00
28448;BME280;15675;52.870;-1.416;2022-10-23T03:56:16;100066.03;;;14.74;100.00
28448;BME280;15675;52.870;-1.416;2022-10-23T03:58:41;100072.00;;;14.77;100.00
28448;BME280;15675;52.870;-1.416;2022-10-23T04:01:09;100056.84;;;14.92;100.00
28448;BME280;15675;52.870;-1.416;2022-10-23T04:03:35;100054.84;;;14.67;100.00
28448;BME280;15675;52.870;-1.416;2022-10-23T04:06:01;100059.31;;;14.60;100.00
28448;BME280;15675;52.870;-1.416;2022-10-23T04:08:26;100040.34;;;14.54;100.00
28448;BME280;15675;52.870;-1.416;2022-10-23T04:10:53;100032.66;;;14.46;100.00
28448;BME280;15675;52.870;-1.416;2022-10-23T04:13:19;100029.91;;;14.52;100.00
28448;BME280;15675;52.870;-1.416;2022-10-23T04:15:48;100024.19;;;14.36;100.00
28448;BME280;15675;52.870;-1.416;2022-10-23T04:18:15;100012.25;;;14.26;100.00
28448;BME280;15675;52.870;-1.416;2022-10-23T04:20:40;99999.19;;;14.26;100.00
28448;BME280;15675;52.870;-1.416;2022-10-23T04:23:06;100002.88;;;14.17;100.00
28448;BME280;15675;52.870;-1.416;2022-10-23T04:25:32;99989.72;;;14.22;100.00
28448;BME280;15675;52.870;-1.416;2022-10-23T04:27:58;99986.41;;;14.13;100.00
28448;BME280;15675;52.870;-1.416;2022-10-23T04:30:23;99984.50;;;14.22;100.00
28448;BME280;15675;52.870;-1.416;2022-10-23T04:32:50;99976.91;;;14.12;100.00
28448;BME280;15675;52.870;-1.416;2022-10-23T04:35:16;99964.56;;;14.18;100.00
28448;BME280;15675;52.870;-1.416;2022-10-23T04:37:42;99948.59;;;13.94;100.00
28448;BME280;15675;52.870;-1.416;2022-10-23T04:40:08;99940.72;;;13.97;100.00
28448;BME280;15675;52.870;-1.416;2022-10-23T04:42:34;99931.16;;;13.96;100.00
28448;BME280;15675;52.870;-1.416;2022-10-23T04:44:59;99911.25;;;13.92;100.00
28448;BME280;15675;52.870;-1.416;2022-10-23T04:47:25;99922.56;;;13.92;100.00
28448;BME280;15675;52.870;-1.416;2022-10-23T04:49:50;99935.03;;;13.78;100.00
28448;BME280;15675;52.870;-1.416;2022-10-23T04:52:16;99951.47;;;13.81;100.00
28448;BME280;15675;52.870;-1.416;2022-10-23T04:54:42;99970.13;;;14.02;100.00
28448;BME280;15675;52.870;-1.416;2022-10-23T04:57:07;99973.03;;;13.90;100.00
28448;BME280;15675;52.870;-1.416;2022-10-23T04:59:33;99972.75;;;14.02;100.00
28448;BME280;15675;52.870;-1.416;2022-10-23T05:01:59;99970.72;;;14.15;100.00
28448;BME280;15675;52.870;-1.416;2022-10-23T05:04:24;99964.31;;;13.91;100.00
28448;BME280;15675;52.870;-1.416;2022-10-23T05:06:50;99966.94;;;13.89;100.00
28448;BME280;15675;52.870;-1.416;2022-10-23T05:09:15;99965.28;;;13.85;100.00
28448;BME280;15675;52.870;-1.416;2022-10-23T05:11:41;99959.19;;;13.86;100.00
28448;BME280;15675;52.870;-1.416;2022-10-23T05:14:07;99957.31;;;13.93;100.00
28448;BME280;15675;52.870;-1.416;2022-10-23T05:16:45;99944.56;;;13.79;100.00
28448;BME280;15675;52.870;-1.416;2022-10-23T05:19:17;99954.25;;;13.74;100.00
28448;BME280;15675;52.870;-1.416;2022-10-23T05:21:46;99957.69;;;13.76;100.00
28448;BME280;15675;52.870;-1.416;2022-10-23T05:24:13;99959.19;;;13.86;100.00
28448;BME280;15675;52.870;-1.416;2022-10-23T05:26:38;99943.72;;;13.78;100.00
28448;BME280;15675;52.870;-1.416;2022-10-23T05:29:04;99938.41;;;13.83;100.00
28448;BME280;15675;52.870;-1.416;2022-10-23T05:31:30;99944.50;;;13.82;100.00
28448;BME280;15675;52.870;-1.416;2022-10-23T05:33:58;99944.53;;;13.80;100.00
28448;BME280;15675;52.870;-1.416;2022-10-23T05:36:24;99950.81;;;13.72;100.00
28448;BME280;15675;52.870;-1.416;2022-10-23T05:38:50;99941.78;;;13.88;100.00
28448;BME280;15675;52.870;-1.416;2022-10-23T05:41:16;99940.50;;;13.67;100.00
28448;BME280;15675;52.870;-1.416;2022-10-23T05:43:42;99933.72;;;13.97;100.00
28448;BME280;15675;52.870;-1.416;2022-10-23T05:46:08;99931.38;;;13.87;100.00
28448;BME280;15675;52.870;-1.416;2022-10-23T05:48:34;99933.16;;;13.85;100.00
28448;BME280;15675;52.870;-1.416;2022-10-23T05:51:04;99930.97;;;14.05;100.00
28448;BME280;15675;52.870;-1.416;2022-10-23T05:53:30;99929.47;;;13.93;100.00
28448;BME280;15675;52.870;-1.416;2022-10-23T05:55:55;99912.69;;;14.04;100.00
28448;BME280;15675;52.870;-1.416;2022-10-23T05:58:21;99910.09;;;14.04;100.00
28448;BME280;15675;52.870;-1.416;2022-10-23T06:00:47;99896.28;;;14.00;100.00
28448;BME280;15675;52.870;-1.416;2022-10-23T06:03:13;99893.66;;;14.00;100.00
28448;BME280;15675;52.870;-1.416;2022-10-23T06:05:38;99887.66;;;13.96;100.00
28448;BME280;15675;52.870;-1.416;2022-10-23T06:08:04;99894.63;;;13.96;100.00
28448;BME280;15675;52.870;-1.416;2022-10-23T06:10:30;99898.56;;;14.14;100.00
28448;BME280;15675;52.870;-1.416;2022-10-23T06:12:56;99926.34;;;14.17;100.00
28448;BME280;15675;52.870;-1.416;2022-10-23T06:15:21;99937.34;;;14.29;100.00
28448;BME280;15675;52.870;-1.416;2022-10-23T06:17:48;99950.47;;;14.64;100.00
28448;BME280;15675;52.870;-1.416;2022-10-23T06:20:16;99973.88;;;15.01;100.00
28448;BME280;15675;52.870;-1.416;2022-10-23T06:22:41;99977.53;;;14.94;100.00
28448;BME280;15675;52.870;-1.416;2022-10-23T06:25:07;99968.09;;;15.22;100.00
28448;BME280;15675;52.870;-1.416;2022-10-23T06:27:33;99963.09;;;15.45;100.00
28448;BME280;15675;52.870;-1.416;2022-10-23T06:29:58;99966.72;;;15.41;100.00
28448;BME280;15675;52.870;-1.416;2022-10-23T06:32:23;99955.81;;;14.56;100.00
28448;BME280;15675;52.870;-1.416;2022-10-23T06:34:49;99952.50;;;14.51;100.00
28448;BME280;15675;52.870;-1.416;2022-10-23T06:37:14;99959.16;;;14.64;100.00
28448;BME280;15675;52.870;-1.416;2022-10-23T06:39:40;99948.84;;;14.58;100.00
28448;BME280;15675;52.870;-1.416;2022-10-23T06:42:05;99941.63;;;14.70;100.00
28448;BME280;15675;52.870;-1.416;2022-10-23T06:44:32;99937.50;;;14.59;100.00
28448;BME280;15675;52.870;-1.416;2022-10-23T06:46:57;99937.44;;;14.25;100.00
28448;BME280;15675;52.870;-1.416;2022-10-23T06:49:24;99940.09;;;14.23;100.00
28448;BME280;15675;52.870;-1.416;2022-10-23T06:51:50;99939.25;;;14.23;100.00
28448;BME280;15675;52.870;-1.416;2022-10-23T06:54:15;99939.69;;;14.04;100.00
28448;BME280;15675;52.870;-1.416;2022-10-23T06:56:41;99938.78;;;14.04;100.00
28448;BME280;15675;52.870;-1.416;2022-10-23T06:59:06;99920.38;;;14.11;100.00
28448;BME280;15675;52.870;-1.416;2022-10-23T07:01:33;99909.31;;;14.00;100.00
28448;BME280;15675;52.870;-1.416;2022-10-23T07:03:58;99894.91;;;13.84;100.00
28448;BME280;15675;52.870;-1.416;2022-10-23T07:06:24;99874.88;;;13.86;100.00
28448;BME280;15675;52.870;-1.416;2022-10-23T07:08:49;99857.44;;;13.88;100.00
28448;BME280;15675;52.870;-1.416;2022-10-23T07:11:15;99850.56;;;13.84;100.00
28448;BME280;15675;52.870;-1.416;2022-10-23T07:13:40;99845.22;;;13.90;100.00
28448;BME280;15675;52.870;-1.416;2022-10-23T07:16:15;99836.25;;;13.64;100.00
28448;BME280;15675;52.870;-1.416;2022-10-23T07:18:42;99828.22;;;13.73;100.00
28448;BME280;15675;52.870;-1.416;2022-10-23T07:21:08;99825.69;;;13.70;100.00
28448;BME280;15675;52.870;-1.416;2022-10-23T07:23:34;99820.66;;;13.61;100.00
28448;BME280;15675;52.870;-1.416;2022-10-23T07:26:05;99816.41;;;13.58;100.00
28448;BME280;15675;52.870;-1.416;2022-10-23T07:28:30;99812.19;;;13.53;100.00
28448;BME280;15675;52.870;-1.416;2022-10-23T07:31:00;99828.47;;;13.61;100.00
28448;BME280;15675;52.870;-1.416;2022-10-23T07:33:25;99842.34;;;13.63;100.00
28448;BME280;15675;52.870;-1.416;2022-10-23T07:35:51;99836.22;;;13.66;100.00
28448;BME280;15675;52.870;-1.416;2022-10-23T07:38:17;99839.63;;;13.68;100.00
28448;BME280;15675;52.870;-1.416;2022-10-23T07:40:43;99836.78;;;13.78;100.00
28448;BME280;15675;52.870;-1.416;2022-10-23T07:43:09;99844.13;;;13.62;100.00
28448;BME280;15675;52.870;-1.416;2022-10-23T07:45:34;99860.16;;;13.83;100.00
28448;BME280;15675;52.870;-1.416;2022-10-23T07:48:00;99866.94;;;13.90;100.00
28448;BME280;15675;52.870;-1.416;2022-10-23T07:50:25;99864.66;;;13.76;100.00
28448;BME280;15675;52.870;-1.416;2022-10-23T07:52:51;99863.25;;;13.99;100.00
28448;BME280;15675;52.870;-1.416;2022-10-23T07:55:16;99849.56;;;13.89;100.00
28448;BME280;15675;52.870;-1.416;2022-10-23T07:57:42;99836.44;;;13.94;100.00
28448;BME280;15675;52.870;-1.416;2022-10-23T08:00:09;99829.41;;;13.96;100.00
28448;BME280;15675;52.870;-1.416;2022-10-23T08:02:35;99820.31;;;13.76;100.00
28448;BME280;15675;52.870;-1.416;2022-10-23T08:05:01;99821.03;;;13.83;100.00
28448;BME280;15675;52.870;-1.416;2022-10-23T08:07:26;99821.19;;;13.77;100.00
28448;BME280;15675;52.870;-1.416;2022-10-23T08:09:52;99814.28;;;13.74;100.00
28448;BME280;15675;52.870;-1.416;2022-10-23T08:12:17;99831.31;;;13.89;100.00
28448;BME280;15675;52.870;-1.416;2022-10-23T08:14:43;99833.88;;;13.91;100.00
28448;BME280;15675;52.870;-1.416;2022-10-23T08:17:08;99826.31;;;13.80;100.00
28448;BME280;15675;52.870;-1.416;2022-10-23T08:19:35;99815.00;;;13.79;100.00
28448;BME280;15675;52.870;-1.416;2022-10-23T08:22:00;99810.03;;;13.70;100.00
28448;BME280;15675;52.870;-1.416;2022-10-23T08:24:26;99807.94;;;13.85;100.00
28448;BME280;15675;52.870;-1.416;2022-10-23T08:26:52;99800.47;;;13.69;100.00
28448;BME280;15675;52.870;-1.416;2022-10-23T08:29:17;99799.03;;;13.57;100.00
28448;BME280;15675;52.870;-1.416;2022-10-23T08:31:43;99783.50;;;13.53;100.00
28448;BME280;15675;52.870;-1.416;2022-10-23T08:34:09;99788.91;;;13.43;100.00
28448;BME280;15675;52.870;-1.416;2022-10-23T08:36:34;99777.38;;;13.55;100.00
28448;BME280;15675;52.870;-1.416;2022-10-23T08:39:01;99777.97;;;13.65;100.00
28448;BME280;15675;52.870;-1.416;2022-10-23T08:41:36;99773.81;;;13.58;100.00
28448;BME280;15675;52.870;-1.416;2022-10-23T08:44:13;99769.72;;;13.84;100.00
28448;BME280;15675;52.870;-1.416;2022-10-23T08:46:46;99773.28;;;13.79;100.00
28448;BME280;15675;52.870;-1.416;2022-10-23T08:51:54;99755.94;;;13.78;100.00
28448;BME280;15675;52.870;-1.416;2022-10-23T08:54:27;99748.00;;;13.83;100.00
28448;BME280;15675;52.870;-1.416;2022-10-23T08:57:00;99745.44;;;13.81;100.00
28448;BME280;15675;52.870;-1.416;2022-10-23T08:59:45;99738.38;;;13.87;100.00
28448;BME280;15675;52.870;-1.416;2022-10-23T09:02:23;99749.69;;;13.86;100.00
28448;BME280;15675;52.870;-1.416;2022-10-23T09:04:52;99739.25;;;13.86;100.00
28448;BME280;15675;52.870;-1.416;2022-10-23T09:07:49;99760.69;;;13.97;100.00
28448;BME280;15675;52.870;-1.416;2022-10-23T09:12:58;99725.19;;;13.91;100.00
28448;BME280;15675;52.870;-1.416;2022-10-23T09:16:02;99721.34;;;13.72;100.00
28448;BME280;15675;52.870;-1.416;2022-10-23T09:18:33;99719.16;;;13.89;100.00
28448;BME280;15675;52.870;-1.416;2022-10-23T09:20:59;99722.28;;;14.02;100.00
28448;BME280;15675;52.870;-1.416;2022-10-23T09:23:24;99717.13;;;14.01;100.00
28448;BME280;15675;52.870;-1.416;2022-10-23T09:25:51;99704.25;;;13.94;100.00
28448;BME280;15675;52.870;-1.416;2022-10-23T09:28:30;99703.78;;;14.11;100.00
28448;BME280;15675;52.870;-1.416;2022-10-23T09:31:10;99703.78;;;14.11;100.00
28448;BME280;15675;52.870;-1.416;2022-10-23T09:33:39;99694.63;;;14.29;100.00
28448;BME280;15675;52.870;-1.416;2022-10-23T09:36:07;99692.94;;;14.27;100.00
28448;BME280;15675;52.870;-1.416;2022-10-23T09:41:20;99665.97;;;14.26;100.00
28448;BME280;15675;52.870;-1.416;2022-10-23T09:43:57;99658.41;;;14.48;100.00
28448;BME280;15675;52.870;-1.416;2022-10-23T09:46:23;99646.28;;;14.46;100.00
28448;BME280;15675;52.870;-1.416;2022-10-23T09:48:56;99636.16;;;14.35;100.00
28448;BME280;15675;52.870;-1.416;2022-10-23T09:51:22;99631.50;;;14.45;100.00
28448;BME280;15675;52.870;-1.416;2022-10-23T09:53:51;99632.47;;;14.42;100.00
28448;BME280;15675;52.870;-1.416;2022-10-23T09:56:38;99622.38;;;14.60;100.00
28448;BME280;15675;52.870;-1.416;2022-10-23T09:59:18;99621.69;;;14.53;100.00
28448;BME280;15675;52.870;-1.416;2022-10-23T10:01:57;99612.69;;;14.33;100.00
28448;BME280;15675;52.870;-1.416;2022-10-23T10:04:39;99616.31;;;14.59;100.00
28448;BME280;15675;52.870;-1.416;2022-10-23T10:07:25;99612.66;;;14.66;100.00
28448;BME280;15675;52.870;-1.416;2022-10-23T10:09:53;99614.47;;;14.63;100.00
28448;BME280;15675;52.870;-1.416;2022-10-23T10:17:42;99594.44;;;14.92;100.00
28448;BME280;15675;52.870;-1.416;2022-10-23T10:20:45;99597.38;;;15.09;100.00
28448;BME280;15675;52.870;-1.416;2022-10-23T10:23:27;99610.78;;;14.98;100.00
28448;BME280;15675;52.870;-1.416;2022-10-23T10:26:05;99622.22;;;14.94;100.00
28448;BME280;15675;52.870;-1.416;2022-10-23T10:29:02;99628.13;;;15.01;100.00
28448;BME280;15675;52.870;-1.416;2022-10-23T10:31:34;99621.69;;;14.83;100.00
28448;BME280;15675;52.870;-1.416;2022-10-23T10:34:14;99623.06;;;14.95;100.00
28448;BME280;15675;52.870;-1.416;2022-10-23T10:42:13;99594.66;;;15.12;100.00
28448;BME280;15675;52.870;-1.416;2022-10-23T10:44:56;99578.53;;;15.25;100.00
28448;BME280;15675;52.870;-1.416;2022-10-23T10:47:48;99579.78;;;15.40;100.00
28448;BME280;15675;52.870;-1.416;2022-10-23T10:50:27;99575.19;;;15.21;100.00
28448;BME280;15675;52.870;-1.416;2022-10-23T10:53:09;99572.81;;;15.40;100.00
28448;BME280;15675;52.870;-1.416;2022-10-23T10:55:42;99565.06;;;15.62;100.00
28448;BME280;15675;52.870;-1.416;2022-10-23T10:58:19;99553.06;;;15.57;100.00
28448;BME280;15675;52.870;-1.416;2022-10-23T11:00:49;99546.28;;;15.51;100.00
28448;BME280;15675;52.870;-1.416;2022-10-23T11:03:39;99549.91;;;15.47;100.00
28448;BME280;15675;52.870;-1.416;2022-10-23T11:06:12;99525.47;;;15.23;100.00
28448;BME280;15675;52.870;-1.416;2022-10-23T11:08:40;99514.81;;;15.04;100.00
28448;BME280;15675;52.870;-1.416;2022-10-23T11:13:42;99526.19;;;15.28;100.00
28448;BME280;15675;52.870;-1.416;2022-10-23T11:18:36;99491.38;;;15.00;100.00
28448;BME280;15675;52.870;-1.416;2022-10-23T11:21:32;99479.66;;;15.12;100.00
28448;BME280;15675;52.870;-1.416;2022-10-23T11:24:15;99479.97;;;15.03;100.00
28448;BME280;15675;52.870;-1.416;2022-10-23T11:27:00;99496.88;;;14.93;100.00
28448;BME280;15675;52.870;-1.416;2022-10-23T11:29:57;99486.19;;;14.99;100.00
28448;BME280;15675;52.870;-1.416;2022-10-23T11:37:58;99478.78;;;15.37;100.00
28448;BME280;15675;52.870;-1.416;2022-10-23T11:40:25;99472.97;;;15.29;100.00
28448;BME280;15675;52.870;-1.416;2022-10-23T11:42:50;99470.97;;;15.61;100.00
28448;BME280;15675;52.870;-1.416;2022-10-23T11:51:32;99451.59;;;15.66;100.00
28448;BME280;15675;52.870;-1.416;2022-10-23T12:01:53;99433.38;;;15.63;100.00
28448;BME280;15675;52.870;-1.416;2022-10-23T12:04:25;99421.50;;;15.54;100.00
28448;BME280;15675;52.870;-1.416;2022-10-23T12:06:57;99418.88;;;15.78;100.00
28448;BME280;15675;52.870;-1.416;2022-10-23T12:14:42;99413.34;;;16.32;100.00
28448;BME280;15675;52.870;-1.416;2022-10-23T12:19:52;99404.94;;;16.24;100.00
28448;BME280;15675;52.870;-1.416;2022-10-23T12:22:19;99401.72;;;16.60;100.00
28448;BME280;15675;52.870;-1.416;2022-10-23T12:30:39;99382.81;;;16.94;100.00
28448;BME280;15675;52.870;-1.416;2022-10-23T12:33:29;99374.38;;;16.86;100.00
28448;BME280;15675;52.870;-1.416;2022-10-23T12:36:04;99364.44;;;17.15;100.00
28448;BME280;15675;52.870;-1.416;2022-10-23T12:38:42;99352.88;;;16.79;100.00
28448;BME280;15675;52.870;-1.416;2022-10-23T12:43:37;99344.72;;;16.85;100.00
28448;BME280;15675;52.870;-1.416;2022-10-23T12:46:28;99337.28;;;16.97;100.00
28448;BME280;15675;52.870;-1.416;2022-10-23T12:48:55;99333.16;;;16.91;100.00
28448;BME280;15675;52.870;-1.416;2022-10-23T12:51:33;99336.66;;;17.30;100.00
28448;BME280;15675;52.870;-1.416;2022-10-23T12:54:00;99324.25;;;17.14;100.00
28448;BME280;15675;52.870;-1.416;2022-10-23T12:56:32;99315.47;;;17.53;100.00
28448;BME280;15675;52.870;-1.416;2022-10-23T12:58:57;99308.75;;;17.48;100.00
28448;BME280;15675;52.870;-1.416;2022-10-23T13:03:58;99313.69;;;17.54;100.00
28448;BME280;15675;52.870;-1.416;2022-10-23T13:06:27;99309.09;;;17.59;100.00
28448;BME280;15675;52.870;-1.416;2022-10-23T13:08:53;99303.34;;;17.51;100.00
28448;BME280;15675;52.870;-1.416;2022-10-23T13:11:20;99306.06;;;17.30;100.00
28448;BME280;15675;52.870;-1.416;2022-10-23T13:13:46;99297.84;;;17.19;100.00
28448;BME280;15675;52.870;-1.416;2022-10-23T13:16:18;99293.63;;;16.96;100.00
28448;BME280;15675;52.870;-1.416;2022-10-23T13:18:45;99289.84;;;17.22;100.00
28448;BME280;15675;52.870;-1.416;2022-10-23T13:21:28;99291.13;;;17.13;100.00
28448;BME280;15675;52.870;-1.416;2022-10-23T13:23:54;99282.13;;;17.19;100.00
28448;BME280;15675;52.870;-1.416;2022-10-23T13:26:48;99280.03;;;17.25;100.00
28448;BME280;15675;52.870;-1.416;2022-10-23T13:29:33;99276.72;;;17.41;100.00
28448;BME280;15675;52.870;-1.416;2022-10-23T13:32:09;99273.75;;;17.49;100.00
28448;BME280;15675;52.870;-1.416;2022-10-23T13:34:35;99278.75;;;17.53;100.00
28448;BME280;15675;52.870;-1.416;2022-10-23T13:37:03;99272.59;;;17.54;100.00
28448;BME280;15675;52.870;-1.416;2022-10-23T13:39:45;99275.34;;;17.51;100.00
28448;BME280;15675;52.870;-1.416;2022-10-23T13:42:13;99275.66;;;17.26;100.00
28448;BME280;15675;52.870;-1.416;2022-10-23T13:44:39;99273.75;;;17.30;100.00
28448;BME280;15675;52.870;-1.416;2022-10-23T13:47:05;99270.47;;;17.05;100.00
28448;BME280;15675;52.870;-1.416;2022-10-23T13:49:33;99267.31;;;16.99;100.00
28448;BME280;15675;52.870;-1.416;2022-10-23T13:51:59;99263.41;;;17.27;100.00
28448;BME280;15675;52.870;-1.416;2022-10-23T13:54:26;99254.34;;;17.51;100.00
28448;BME280;15675;52.870;-1.416;2022-10-23T13:56:53;99250.72;;;17.73;100.00
28448;BME280;15675;52.870;-1.416;2022-10-23T13:59:19;99245.00;;;17.65;100.00
28448;BME280;15675;52.870;-1.416;2022-10-23T14:01:46;99241.56;;;17.63;100.00
28448;BME280;15675;52.870;-1.416;2022-10-23T14:04:13;99225.06;;;17.43;100.00
28448;BME280;15675;52.870;-1.416;2022-10-23T14:06:39;99223.78;;;17.33;100.00
28448;BME280;15675;52.870;-1.416;2022-10-23T14:09:09;99220.97;;;17.18;100.00
28448;BME280;15675;52.870;-1.416;2022-10-23T14:11:35;99214.25;;;17.49;100.00
28448;BME280;15675;52.870;-1.416;2022-10-23T14:14:01;99222.09;;;17.32;100.00
28448;BME280;15675;52.870;-1.416;2022-10-23T14:16:27;99213.69;;;17.42;100.00